sensor_id;sensor_type;location;lat;lon;timestamp;temperature;humidity
60033;DHT22;45905;50.570;10.428;2022-09-09T00:00:53;13.90;89.40
60033;DHT22;45905;50.570;10.428;2022-09-09T00:03:29;13.90;89.70
60033;DHT22;45905;50.570;10.428;2022-09-09T00:06:15;13.90;89.50
60033;DHT22;45905;50.570;10.428;2022-09-09T00:09:03;14.30;90.20
60033;DHT22;45905;50.570;10.428;2022-09-09T00:11:42;13.90;90.10
60033;DHT22;45905;50.570;10.428;2022-09-09T00:14:32;13.90;90.00
60033;DHT22;45905;50.570;10.428;2022-09-09T00:17:59;13.90;90.10
60033;DHT22;45905;50.570;10.428;2022-09-09T00:20:45;13.90;90.10
60033;DHT22;45905;50.570;10.428;2022-09-09T00:31:45;13.70;90.40
60033;DHT22;45905;50.570;10.428;2022-09-09T00:34:22;13.70;90.60
60033;DHT22;45905;50.570;10.428;2022-09-09T00:36:52;13.70;90.40
60033;DHT22;45905;50.570;10.428;2022-09-09T00:39:36;13.80;90.40
60033;DHT22;45905;50.570;10.428;2022-09-09T00:47:46;13.70;90.70
60033;DHT22;45905;50.570;10.428;2022-09-09T00:53:30;13.70;90.50
60033;DHT22;45905;50.570;10.428;2022-09-09T00:56:13;13.70;90.70
60033;DHT22;45905;50.570;10.428;2022-09-09T00:58:57;13.70;90.80
60033;DHT22;45905;50.570;10.428;2022-09-09T01:01:31;13.70;91.00
60033;DHT22;45905;50.570;10.428;2022-09-09T01:03:59;13.70;91.00
60033;DHT22;45905;50.570;10.428;2022-09-09T01:06:29;13.70;90.70
60033;DHT22;45905;50.570;10.428;2022-09-09T01:12:14;13.70;90.50
60033;DHT22;45905;50.570;10.428;2022-09-09T01:15:12;13.70;90.70
60033;DHT22;45905;50.570;10.428;2022-09-09T01:18:00;13.40;90.60
60033;DHT22;45905;50.570;10.428;2022-09-09T01:26:41;13.60;91.10
60033;DHT22;45905;50.570;10.428;2022-09-09T01:29:23;13.60;91.10
60033;DHT22;45905;50.570;10.428;2022-09-09T01:32:03;13.60;90.80
60033;DHT22;45905;50.570;10.428;2022-09-09T01:38:40;13.40;91.30
60033;DHT22;45905;50.570;10.428;2022-09-09T01:41:07;13.30;91.50
60033;DHT22;45905;50.570;10.428;2022-09-09T01:43:45;13.30;91.60
60033;DHT22;45905;50.570;10.428;2022-09-09T01:46:12;13.30;91.40
60033;DHT22;45905;50.570;10.428;2022-09-09T01:48:41;13.30;91.40
60033;DHT22;45905;50.570;10.428;2022-09-09T01:51:10;13.40;91.50
60033;DHT22;45905;50.570;10.428;2022-09-09T01:53:39;13.40;91.30
60033;DHT22;45905;50.570;10.428;2022-09-09T01:56:30;13.40;91.20
60033;DHT22;45905;50.570;10.428;2022-09-09T02:08:20;13.40;91.80
60033;DHT22;45905;50.570;10.428;2022-09-09T02:11:03;13.40;91.70
60033;DHT22;45905;50.570;10.428;2022-09-09T02:13:43;13.50;91.70
60033;DHT22;45905;50.570;10.428;2022-09-09T02:19:21;13.50;91.40
60033;DHT22;45905;50.570;10.428;2022-09-09T02:22:01;13.40;91.40
60033;DHT22;45905;50.570;10.428;2022-09-09T02:24:35;13.50;91.50
60033;DHT22;45905;50.570;10.428;2022-09-09T02:27:20;13.50;91.50
60033;DHT22;45905;50.570;10.428;2022-09-09T02:29:49;13.40;91.60
60033;DHT22;45905;50.570;10.428;2022-09-09T02:32:34;13.50;91.80
60033;DHT22;45905;50.570;10.428;2022-09-09T02:35:19;13.50;91.90
60033;DHT22;45905;50.570;10.428;2022-09-09T02:37:51;13.50;91.90
60033;DHT22;45905;50.570;10.428;2022-09-09T02:40:22;13.50;92.20
60033;DHT22;45905;50.570;10.428;2022-09-09T02:42:57;13.50;92.30
60033;DHT22;45905;50.570;10.428;2022-09-09T02:45:29;13.40;92.50
60033;DHT22;45905;50.570;10.428;2022-09-09T02:48:30;13.30;92.60
60033;DHT22;45905;50.570;10.428;2022-09-09T02:51:20;13.20;92.80
60033;DHT22;45905;50.570;10.428;2022-09-09T02:54:35;13.20;92.80
60033;DHT22;45905;50.570;10.428;2022-09-09T02:57:23;13.20;92.60
60033;DHT22;45905;50.570;10.428;2022-09-09T02:59:57;13.20;92.60
60033;DHT22;45905;50.570;10.428;2022-09-09T03:02:25;13.20;92.70
60033;DHT22;45905;50.570;10.428;2022-09-09T03:04:59;13.10;92.80
60033;DHT22;45905;50.570;10.428;2022-09-09T03:07:26;13.20;92.90
60033;DHT22;45905;50.570;10.428;2022-09-09T03:09:54;13.20;92.70
60033;DHT22;45905;50.570;10.428;2022-09-09T03:12:25;13.20;92.40
60033;DHT22;45905;50.570;10.428;2022-09-09T03:14:52;13.20;92.30
60033;DHT22;45905;50.570;10.428;2022-09-09T03:17:19;13.20;92.60
60033;DHT22;45905;50.570;10.428;2022-09-09T03:19:51;13.20;92.40
60033;DHT22;45905;50.570;10.428;2022-09-09T03:22:21;13.20;92.20
60033;DHT22;45905;50.570;10.428;2022-09-09T03:24:48;13.20;92.20
60033;DHT22;45905;50.570;10.428;2022-09-09T03:27:16;13.30;92.20
60033;DHT22;45905;50.570;10.428;2022-09-09T03:29:44;13.20;92.10
60033;DHT22;45905;50.570;10.428;2022-09-09T03:32:18;13.20;92.10
60033;DHT22;45905;50.570;10.428;2022-09-09T03:34:49;13.20;92.10
60033;DHT22;45905;50.570;10.428;2022-09-09T03:37:16;13.20;92.10
60033;DHT22;45905;50.570;10.428;2022-09-09T03:39:44;13.20;92.00
60033;DHT22;45905;50.570;10.428;2022-09-09T03:42:59;13.20;92.00
60033;DHT22;45905;50.570;10.428;2022-09-09T03:45:28;13.20;91.90
60033;DHT22;45905;50.570;10.428;2022-09-09T03:47:55;13.20;91.60
60033;DHT22;45905;50.570;10.428;2022-09-09T03:50:24;13.20;91.50
60033;DHT22;45905;50.570;10.428;2022-09-09T03:52:51;13.10;91.50
60033;DHT22;45905;50.570;10.428;2022-09-09T03:55:21;13.20;91.90
60033;DHT22;45905;50.570;10.428;2022-09-09T03:57:48;13.30;92.00
60033;DHT22;45905;50.570;10.428;2022-09-09T04:00:17;13.10;91.80
60033;DHT22;45905;50.570;10.428;2022-09-09T04:02:49;13.10;91.80
60033;DHT22;45905;50.570;10.428;2022-09-09T04:05:20;13.10;91.80
60033;DHT22;45905;50.570;10.428;2022-09-09T04:07:48;13.00;91.80
60033;DHT22;45905;50.570;10.428;2022-09-09T04:10:15;13.00;91.80
60033;DHT22;45905;50.570;10.428;2022-09-09T04:12:43;13.00;91.90
60033;DHT22;45905;50.570;10.428;2022-09-09T04:15:15;13.00;92.00
60033;DHT22;45905;50.570;10.428;2022-09-09T04:17:43;13.00;92.10
60033;DHT22;45905;50.570;10.428;2022-09-09T04:20:10;13.00;92.00
60033;DHT22;45905;50.570;10.428;2022-09-09T04:22:38;13.10;92.10
60033;DHT22;45905;50.570;10.428;2022-09-09T04:25:08;13.00;92.00
60033;DHT22;45905;50.570;10.428;2022-09-09T04:27:35;12.90;91.90
60033;DHT22;45905;50.570;10.428;2022-09-09T04:30:03;12.90;91.90
60033;DHT22;45905;50.570;10.428;2022-09-09T04:32:33;12.80;91.90
60033;DHT22;45905;50.570;10.428;2022-09-09T04:35:00;12.90;92.00
60033;DHT22;45905;50.570;10.428;2022-09-09T04:37:28;12.90;92.00
60033;DHT22;45905;50.570;10.428;2022-09-09T04:39:55;12.80;91.90
60033;DHT22;45905;50.570;10.428;2022-09-09T04:42:22;12.80;91.80
60033;DHT22;45905;50.570;10.428;2022-09-09T04:44:50;12.80;91.90
60033;DHT22;45905;50.570;10.428;2022-09-09T04:47:17;12.70;92.20
60033;DHT22;45905;50.570;10.428;2022-09-09T04:49:44;12.70;92.40
60033;DHT22;45905;50.570;10.428;2022-09-09T04:52:12;12.60;92.40
60033;DHT22;45905;50.570;10.428;2022-09-09T04:54:39;12.60;92.40
60033;DHT22;45905;50.570;10.428;2022-09-09T04:57:07;12.60;92.50
60033;DHT22;45905;50.570;10.428;2022-09-09T04:59:35;12.60;92.30
60033;DHT22;45905;50.570;10.428;2022-09-09T05:02:02;12.60;92.20
60033;DHT22;45905;50.570;10.428;2022-09-09T05:04:30;12.60;92.30
60033;DHT22;45905;50.570;10.428;2022-09-09T05:06:58;12.60;92.50
60033;DHT22;45905;50.570;10.428;2022-09-09T05:09:26;12.60;92.50
60033;DHT22;45905;50.570;10.428;2022-09-09T05:11:53;12.60;92.20
60033;DHT22;45905;50.570;10.428;2022-09-09T05:14:29;12.60;92.20
60033;DHT22;45905;50.570;10.428;2022-09-09T05:16:59;12.50;92.20
60033;DHT22;45905;50.570;10.428;2022-09-09T05:19:26;12.60;92.40
60033;DHT22;45905;50.570;10.428;2022-09-09T05:21:54;12.60;92.40
60033;DHT22;45905;50.570;10.428;2022-09-09T05:24:28;12.60;92.50
60033;DHT22;45905;50.570;10.428;2022-09-09T05:26:57;12.60;93.00
60033;DHT22;45905;50.570;10.428;2022-09-09T05:29:26;12.70;93.30
60033;DHT22;45905;50.570;10.428;2022-09-09T05:31:55;12.60;93.30
60033;DHT22;45905;50.570;10.428;2022-09-09T05:34:23;12.60;93.30
60033;DHT22;45905;50.570;10.428;2022-09-09T05:36:50;13.10;93.50
60033;DHT22;45905;50.570;10.428;2022-09-09T05:39:20;12.60;93.30
60033;DHT22;45905;50.570;10.428;2022-09-09T05:41:48;12.60;93.30
60033;DHT22;45905;50.570;10.428;2022-09-09T05:44:15;12.60;93.20
60033;DHT22;45905;50.570;10.428;2022-09-09T05:46:43;12.60;93.10
60033;DHT22;45905;50.570;10.428;2022-09-09T05:49:12;12.60;93.30
60033;DHT22;45905;50.570;10.428;2022-09-09T05:51:40;12.70;93.50
60033;DHT22;45905;50.570;10.428;2022-09-09T05:54:11;12.70;93.60
60033;DHT22;45905;50.570;10.428;2022-09-09T05:56:45;12.70;93.50
60033;DHT22;45905;50.570;10.428;2022-09-09T05:59:17;12.80;93.50
60033;DHT22;45905;50.570;10.428;2022-09-09T06:01:45;12.80;93.40
60033;DHT22;45905;50.570;10.428;2022-09-09T06:04:19;12.80;93.40
60033;DHT22;45905;50.570;10.428;2022-09-09T06:06:51;12.80;93.60
60033;DHT22;45905;50.570;10.428;2022-09-09T06:09:20;12.80;93.40
60033;DHT22;45905;50.570;10.428;2022-09-09T06:11:48;12.80;93.30
60033;DHT22;45905;50.570;10.428;2022-09-09T06:14:15;12.80;93.30
60033;DHT22;45905;50.570;10.428;2022-09-09T06:16:46;12.90;93.50
60033;DHT22;45905;50.570;10.428;2022-09-09T06:19:18;12.90;93.60
60033;DHT22;45905;50.570;10.428;2022-09-09T06:21:47;13.00;93.60
60033;DHT22;45905;50.570;10.428;2022-09-09T06:24:15;13.00;93.60
60033;DHT22;45905;50.570;10.428;2022-09-09T06:26:44;13.00;93.70
60033;DHT22;45905;50.570;10.428;2022-09-09T06:29:17;13.10;93.70
60033;DHT22;45905;50.570;10.428;2022-09-09T06:31:45;13.10;93.70
60033;DHT22;45905;50.570;10.428;2022-09-09T06:34:15;13.20;93.90
60033;DHT22;45905;50.570;10.428;2022-09-09T06:36:46;13.20;93.90
60033;DHT22;45905;50.570;10.428;2022-09-09T06:39:13;13.30;94.20
60033;DHT22;45905;50.570;10.428;2022-09-09T06:41:42;13.30;94.20
60033;DHT22;45905;50.570;10.428;2022-09-09T06:44:28;13.30;94.00
60033;DHT22;45905;50.570;10.428;2022-09-09T06:47:02;13.30;94.00
60033;DHT22;45905;50.570;10.428;2022-09-09T06:49:31;13.40;93.90
60033;DHT22;45905;50.570;10.428;2022-09-09T06:51:59;13.40;93.90
60033;DHT22;45905;50.570;10.428;2022-09-09T06:54:27;13.40;93.80
60033;DHT22;45905;50.570;10.428;2022-09-09T06:56:55;13.60;93.90
60033;DHT22;45905;50.570;10.428;2022-09-09T06:59:24;13.60;93.80
60033;DHT22;45905;50.570;10.428;2022-09-09T07:01:53;13.60;93.90
60033;DHT22;45905;50.570;10.428;2022-09-09T07:04:23;13.60;93.90
60033;DHT22;45905;50.570;10.428;2022-09-09T07:06:50;13.70;93.90
60033;DHT22;45905;50.570;10.428;2022-09-09T07:09:24;13.70;93.90
60033;DHT22;45905;50.570;10.428;2022-09-09T07:11:52;13.80;94.00
60033;DHT22;45905;50.570;10.428;2022-09-09T07:14:22;13.80;94.00
60033;DHT22;45905;50.570;10.428;2022-09-09T07:16:58;13.90;94.30
60033;DHT22;45905;50.570;10.428;2022-09-09T07:19:32;13.90;94.40
60033;DHT22;45905;50.570;10.428;2022-09-09T07:22:03;14.00;94.40
60033;DHT22;45905;50.570;10.428;2022-09-09T07:24:31;14.10;94.70
60033;DHT22;45905;50.570;10.428;2022-09-09T07:26:59;14.20;94.50
60033;DHT22;45905;50.570;10.428;2022-09-09T07:29:26;14.30;94.30
60033;DHT22;45905;50.570;10.428;2022-09-09T07:31:53;14.40;94.20
60033;DHT22;45905;50.570;10.428;2022-09-09T07:34:26;14.50;94.40
60033;DHT22;45905;50.570;10.428;2022-09-09T07:36:53;14.60;94.30
60033;DHT22;45905;50.570;10.428;2022-09-09T07:39:21;14.70;94.40
60033;DHT22;45905;50.570;10.428;2022-09-09T07:41:52;14.80;94.00
60033;DHT22;45905;50.570;10.428;2022-09-09T07:44:24;14.80;93.60
60033;DHT22;45905;50.570;10.428;2022-09-09T07:47:02;14.90;93.60
60033;DHT22;45905;50.570;10.428;2022-09-09T07:49:35;15.00;93.50
60033;DHT22;45905;50.570;10.428;2022-09-09T07:52:04;15.10;93.60
60033;DHT22;45905;50.570;10.428;2022-09-09T07:54:33;15.20;93.50
60033;DHT22;45905;50.570;10.428;2022-09-09T07:57:03;15.30;93.20
60033;DHT22;45905;50.570;10.428;2022-09-09T07:59:33;15.40;93.10
60033;DHT22;45905;50.570;10.428;2022-09-09T08:02:02;15.50;93.30
60033;DHT22;45905;50.570;10.428;2022-09-09T08:04:31;15.60;92.90
60033;DHT22;45905;50.570;10.428;2022-09-09T08:07:00;15.70;92.70
60033;DHT22;45905;50.570;10.428;2022-09-09T08:09:31;15.70;92.70
60033;DHT22;45905;50.570;10.428;2022-09-09T08:12:06;15.80;92.60
60033;DHT22;45905;50.570;10.428;2022-09-09T08:14:35;15.90;92.60
60033;DHT22;45905;50.570;10.428;2022-09-09T08:17:02;16.00;92.60
60033;DHT22;45905;50.570;10.428;2022-09-09T08:19:31;16.10;92.50
60033;DHT22;45905;50.570;10.428;2022-09-09T08:22:07;16.20;92.60
60033;DHT22;45905;50.570;10.428;2022-09-09T08:24:37;16.30;91.90
60033;DHT22;45905;50.570;10.428;2022-09-09T08:27:04;16.50;91.70
60033;DHT22;45905;50.570;10.428;2022-09-09T08:29:32;16.60;91.40
60033;DHT22;45905;50.570;10.428;2022-09-09T08:31:59;16.60;91.30
60033;DHT22;45905;50.570;10.428;2022-09-09T08:34:28;16.70;91.30
60033;DHT22;45905;50.570;10.428;2022-09-09T08:36:59;16.80;90.90
60033;DHT22;45905;50.570;10.428;2022-09-09T08:39:39;16.90;90.70
60033;DHT22;45905;50.570;10.428;2022-09-09T08:42:38;16.40;90.50
60033;DHT22;45905;50.570;10.428;2022-09-09T08:45:22;17.00;91.00
60033;DHT22;45905;50.570;10.428;2022-09-09T08:48:32;17.10;90.80
60033;DHT22;45905;50.570;10.428;2022-09-09T08:51:10;17.10;90.50
60033;DHT22;45905;50.570;10.428;2022-09-09T08:53:45;17.20;90.40
60033;DHT22;45905;50.570;10.428;2022-09-09T08:56:21;17.30;90.40
60033;DHT22;45905;50.570;10.428;2022-09-09T08:58:55;17.40;90.10
60033;DHT22;45905;50.570;10.428;2022-09-09T09:05:19;17.50;90.30
60033;DHT22;45905;50.570;10.428;2022-09-09T09:08:36;17.60;90.20
60033;DHT22;45905;50.570;10.428;2022-09-09T09:11:10;17.70;90.20
60033;DHT22;45905;50.570;10.428;2022-09-09T09:14:00;17.80;90.10
60033;DHT22;45905;50.570;10.428;2022-09-09T09:16:41;17.90;89.20
60033;DHT22;45905;50.570;10.428;2022-09-09T09:19:17;18.00;90.50
60033;DHT22;45905;50.570;10.428;2022-09-09T09:28:02;18.00;91.20
60033;DHT22;45905;50.570;10.428;2022-09-09T09:30:52;18.00;91.50
60033;DHT22;45905;50.570;10.428;2022-09-09T09:33:35;18.00;91.50
60033;DHT22;45905;50.570;10.428;2022-09-09T09:36:08;17.90;91.40
60033;DHT22;45905;50.570;10.428;2022-09-09T09:38:37;17.80;91.20
60033;DHT22;45905;50.570;10.428;2022-09-09T09:41:34;17.80;91.40
60033;DHT22;45905;50.570;10.428;2022-09-09T09:44:04;17.80;91.70
60033;DHT22;45905;50.570;10.428;2022-09-09T09:46:32;17.80;91.80
60033;DHT22;45905;50.570;10.428;2022-09-09T09:49:10;17.80;92.20
60033;DHT22;45905;50.570;10.428;2022-09-09T09:51:39;17.80;92.50
60033;DHT22;45905;50.570;10.428;2022-09-09T09:56:47;17.80;92.80
60033;DHT22;45905;50.570;10.428;2022-09-09T10:02:25;17.80;92.70
60033;DHT22;45905;50.570;10.428;2022-09-09T10:05:17;17.90;93.70
60033;DHT22;45905;50.570;10.428;2022-09-09T10:08:08;17.90;93.80
60033;DHT22;45905;50.570;10.428;2022-09-09T10:10:54;17.90;93.00
60033;DHT22;45905;50.570;10.428;2022-09-09T10:22:39;18.10;91.70
60033;DHT22;45905;50.570;10.428;2022-09-09T10:28:12;18.20;90.70
60033;DHT22;45905;50.570;10.428;2022-09-09T10:31:11;18.30;90.90
60033;DHT22;45905;50.570;10.428;2022-09-09T10:33:51;18.40;90.10
60033;DHT22;45905;50.570;10.428;2022-09-09T10:36:28;18.50;87.80
60033;DHT22;45905;50.570;10.428;2022-09-09T10:39:14;18.50;87.40
60033;DHT22;45905;50.570;10.428;2022-09-09T10:42:05;18.50;89.00
60033;DHT22;45905;50.570;10.428;2022-09-09T10:44:55;18.40;88.20
60033;DHT22;45905;50.570;10.428;2022-09-09T10:51:10;18.00;90.00
60033;DHT22;45905;50.570;10.428;2022-09-09T11:00:23;17.70;90.50
60033;DHT22;45905;50.570;10.428;2022-09-09T11:03:01;17.70;91.10
60033;DHT22;45905;50.570;10.428;2022-09-09T11:08:21;17.80;91.50
60033;DHT22;45905;50.570;10.428;2022-09-09T11:11:07;17.90;91.80
60033;DHT22;45905;50.570;10.428;2022-09-09T11:21:52;18.20;92.70
60033;DHT22;45905;50.570;10.428;2022-09-09T11:24:35;18.40;92.80
60033;DHT22;45905;50.570;10.428;2022-09-09T11:42:27;19.30;90.30
60033;DHT22;45905;50.570;10.428;2022-09-09T11:44:54;19.40;88.30
60033;DHT22;45905;50.570;10.428;2022-09-09T11:52:43;19.60;89.30
60033;DHT22;45905;50.570;10.428;2022-09-09T11:55:26;19.60;89.20
60033;DHT22;45905;50.570;10.428;2022-09-09T11:58:04;19.60;88.00
60033;DHT22;45905;50.570;10.428;2022-09-09T12:00:36;19.60;86.40
60033;DHT22;45905;50.570;10.428;2022-09-09T12:03:05;19.60;86.60
60033;DHT22;45905;50.570;10.428;2022-09-09T12:05:41;19.40;85.20
60033;DHT22;45905;50.570;10.428;2022-09-09T12:08:16;19.20;85.70
60033;DHT22;45905;50.570;10.428;2022-09-09T12:10:55;18.60;76.60
60033;DHT22;45905;50.570;10.428;2022-09-09T12:13:26;18.30;80.60
60033;DHT22;45905;50.570;10.428;2022-09-09T12:15:56;18.10;83.00
60033;DHT22;45905;50.570;10.428;2022-09-09T12:18:35;17.90;84.50
60033;DHT22;45905;50.570;10.428;2022-09-09T12:24:37;17.90;87.40
60033;DHT22;45905;50.570;10.428;2022-09-09T12:30:15;17.90;90.10
60033;DHT22;45905;50.570;10.428;2022-09-09T12:32:42;17.90;90.40
60033;DHT22;45905;50.570;10.428;2022-09-09T12:35:17;17.90;90.50
60033;DHT22;45905;50.570;10.428;2022-09-09T12:37:56;17.90;90.70
60033;DHT22;45905;50.570;10.428;2022-09-09T12:40:29;18.00;90.80
60033;DHT22;45905;50.570;10.428;2022-09-09T12:42:59;18.10;91.30
60033;DHT22;45905;50.570;10.428;2022-09-09T12:45:32;18.10;90.30
60033;DHT22;45905;50.570;10.428;2022-09-09T12:48:08;18.10;90.00
60033;DHT22;45905;50.570;10.428;2022-09-09T12:50:50;18.10;90.20
60033;DHT22;45905;50.570;10.428;2022-09-09T12:53:24;18.10;90.30
60033;DHT22;45905;50.570;10.428;2022-09-09T12:55:59;18.20;90.30
60033;DHT22;45905;50.570;10.428;2022-09-09T12:58:31;18.30;90.70
60033;DHT22;45905;50.570;10.428;2022-09-09T13:01:00;18.30;90.00
60033;DHT22;45905;50.570;10.428;2022-09-09T13:03:33;18.30;90.00
60033;DHT22;45905;50.570;10.428;2022-09-09T13:06:24;18.40;90.00
60033;DHT22;45905;50.570;10.428;2022-09-09T13:08:57;18.40;90.40
60033;DHT22;45905;50.570;10.428;2022-09-09T13:11:30;18.40;90.50
60033;DHT22;45905;50.570;10.428;2022-09-09T13:14:05;18.50;90.50
60033;DHT22;45905;50.570;10.428;2022-09-09T13:16:34;18.50;90.50
60033;DHT22;45905;50.570;10.428;2022-09-09T13:19:13;18.50;90.60
60033;DHT22;45905;50.570;10.428;2022-09-09T13:21:42;18.50;90.50
60033;DHT22;45905;50.570;10.428;2022-09-09T13:26:58;18.50;90.40
60033;DHT22;45905;50.570;10.428;2022-09-09T13:29:29;18.50;90.70
60033;DHT22;45905;50.570;10.428;2022-09-09T13:32:16;18.50;90.50
60033;DHT22;45905;50.570;10.428;2022-09-09T13:35:01;18.40;90.50
60033;DHT22;45905;50.570;10.428;2022-09-09T13:37:38;18.50;90.60
60033;DHT22;45905;50.570;10.428;2022-09-09T13:40:18;18.40;90.60
60033;DHT22;45905;50.570;10.428;2022-09-09T13:42:53;18.50;90.80
60033;DHT22;45905;50.570;10.428;2022-09-09T13:45:24;18.50;90.90
60033;DHT22;45905;50.570;10.428;2022-09-09T13:47:55;18.50;91.00
60033;DHT22;45905;50.570;10.428;2022-09-09T13:50:25;18.50;91.00
60033;DHT22;45905;50.570;10.428;2022-09-09T13:52:55;18.50;91.30
60033;DHT22;45905;50.570;10.428;2022-09-09T13:55:27;18.50;90.80
60033;DHT22;45905;50.570;10.428;2022-09-09T13:58:00;18.50;90.80
60033;DHT22;45905;50.570;10.428;2022-09-09T14:00:31;18.40;90.90
60033;DHT22;45905;50.570;10.428;2022-09-09T14:02:59;18.40;91.40
60033;DHT22;45905;50.570;10.428;2022-09-09T14:05:32;18.40;91.50
60033;DHT22;45905;50.570;10.428;2022-09-09T14:08:00;18.40;92.00
60033;DHT22;45905;50.570;10.428;2022-09-09T14:10:30;18.40;91.20
60033;DHT22;45905;50.570;10.428;2022-09-09T14:12:58;18.30;90.50
60033;DHT22;45905;50.570;10.428;2022-09-09T14:15:25;18.30;90.70
60033;DHT22;45905;50.570;10.428;2022-09-09T14:17:53;18.20;90.80
60033;DHT22;45905;50.570;10.428;2022-09-09T14:20:20;18.20;90.80
60033;DHT22;45905;50.570;10.428;2022-09-09T14:22:47;18.20;91.00
60033;DHT22;45905;50.570;10.428;2022-09-09T14:25:15;18.20;91.10
60033;DHT22;45905;50.570;10.428;2022-09-09T14:27:42;18.30;91.40
60033;DHT22;45905;50.570;10.428;2022-09-09T14:30:10;18.30;91.20
60033;DHT22;45905;50.570;10.428;2022-09-09T14:32:37;18.20;90.70
60033;DHT22;45905;50.570;10.428;2022-09-09T14:35:05;18.20;90.90
60033;DHT22;45905;50.570;10.428;2022-09-09T14:37:32;18.20;91.30
60033;DHT22;45905;50.570;10.428;2022-09-09T14:39:59;18.30;92.00
60033;DHT22;45905;50.570;10.428;2022-09-09T14:42:26;18.30;92.00
60033;DHT22;45905;50.570;10.428;2022-09-09T14:44:53;18.30;92.60
60033;DHT22;45905;50.570;10.428;2022-09-09T14:47:20;18.40;92.10
60033;DHT22;45905;50.570;10.428;2022-09-09T14:49:48;18.50;91.90
60033;DHT22;45905;50.570;10.428;2022-09-09T14:52:16;18.60;91.90
60033;DHT22;45905;50.570;10.428;2022-09-09T14:54:43;18.70;91.70
60033;DHT22;45905;50.570;10.428;2022-09-09T14:57:10;18.80;91.50
60033;DHT22;45905;50.570;10.428;2022-09-09T14:59:37;18.90;91.20
60033;DHT22;45905;50.570;10.428;2022-09-09T15:02:05;19.00;90.30
60033;DHT22;45905;50.570;10.428;2022-09-09T15:04:32;19.10;90.20
60033;DHT22;45905;50.570;10.428;2022-09-09T15:06:59;19.10;90.40
60033;DHT22;45905;50.570;10.428;2022-09-09T15:09:26;19.20;90.30
60033;DHT22;45905;50.570;10.428;2022-09-09T15:11:54;19.20;89.60
60033;DHT22;45905;50.570;10.428;2022-09-09T15:14:21;19.30;89.40
60033;DHT22;45905;50.570;10.428;2022-09-09T15:16:51;19.30;89.70
60033;DHT22;45905;50.570;10.428;2022-09-09T15:19:18;19.40;89.80
60033;DHT22;45905;50.570;10.428;2022-09-09T15:21:45;19.40;88.30
60033;DHT22;45905;50.570;10.428;2022-09-09T15:24:13;19.40;85.80
60033;DHT22;45905;50.570;10.428;2022-09-09T15:26:40;19.40;86.20
60033;DHT22;45905;50.570;10.428;2022-09-09T15:29:08;19.40;86.70
60033;DHT22;45905;50.570;10.428;2022-09-09T15:31:35;19.40;85.90
60033;DHT22;45905;50.570;10.428;2022-09-09T15:34:05;19.40;85.50
60033;DHT22;45905;50.570;10.428;2022-09-09T15:36:41;19.40;85.10
60033;DHT22;45905;50.570;10.428;2022-09-09T15:39:14;19.40;85.80
60033;DHT22;45905;50.570;10.428;2022-09-09T15:41:44;19.30;83.50
60033;DHT22;45905;50.570;10.428;2022-09-09T15:44:13;19.20;82.20
60033;DHT22;45905;50.570;10.428;2022-09-09T15:46:44;19.10;82.90
60033;DHT22;45905;50.570;10.428;2022-09-09T15:49:20;19.10;83.70
60033;DHT22;45905;50.570;10.428;2022-09-09T15:51:54;19.00;83.40
60033;DHT22;45905;50.570;10.428;2022-09-09T15:54:25;18.90;82.10
60033;DHT22;45905;50.570;10.428;2022-09-09T15:56:55;18.90;82.80
60033;DHT22;45905;50.570;10.428;2022-09-09T15:59:25;18.80;83.60
60033;DHT22;45905;50.570;10.428;2022-09-09T16:01:55;18.80;84.60
60033;DHT22;45905;50.570;10.428;2022-09-09T16:04:23;18.80;85.20
60033;DHT22;45905;50.570;10.428;2022-09-09T16:06:52;18.80;85.50
60033;DHT22;45905;50.570;10.428;2022-09-09T16:09:21;18.80;86.00
60033;DHT22;45905;50.570;10.428;2022-09-09T16:11:48;18.90;86.90
60033;DHT22;45905;50.570;10.428;2022-09-09T16:14:16;18.90;87.50
60033;DHT22;45905;50.570;10.428;2022-09-09T16:16:43;18.90;86.00
60033;DHT22;45905;50.570;10.428;2022-09-09T16:19:12;19.00;86.80
60033;DHT22;45905;50.570;10.428;2022-09-09T16:21:47;19.10;86.60
60033;DHT22;45905;50.570;10.428;2022-09-09T16:24:18;19.10;84.50
60033;DHT22;45905;50.570;10.428;2022-09-09T16:26:49;19.10;82.50
60033;DHT22;45905;50.570;10.428;2022-09-09T16:29:18;19.10;83.50
60033;DHT22;45905;50.570;10.428;2022-09-09T16:31:47;19.10;83.90
60033;DHT22;45905;50.570;10.428;2022-09-09T16:34:16;19.20;83.50
60033;DHT22;45905;50.570;10.428;2022-09-09T16:36:44;19.20;83.80
60033;DHT22;45905;50.570;10.428;2022-09-09T16:39:14;19.20;82.90
60033;DHT22;45905;50.570;10.428;2022-09-09T16:41:44;19.20;83.20
60033;DHT22;45905;50.570;10.428;2022-09-09T16:44:14;19.20;83.60
60033;DHT22;45905;50.570;10.428;2022-09-09T16:46:43;19.20;84.00
60033;DHT22;45905;50.570;10.428;2022-09-09T16:49:13;19.20;84.00
60033;DHT22;45905;50.570;10.428;2022-09-09T16:51:46;19.30;84.00
60033;DHT22;45905;50.570;10.428;2022-09-09T16:54:16;19.20;83.10
60033;DHT22;45905;50.570;10.428;2022-09-09T16:56:45;19.20;82.20
60033;DHT22;45905;50.570;10.428;2022-09-09T16:59:19;19.10;81.90
60033;DHT22;45905;50.570;10.428;2022-09-09T17:01:50;19.10;82.20
60033;DHT22;45905;50.570;10.428;2022-09-09T17:04:25;19.10;82.20
60033;DHT22;45905;50.570;10.428;2022-09-09T17:06:54;19.10;81.90
60033;DHT22;45905;50.570;10.428;2022-09-09T17:09:23;19.10;82.40
60033;DHT22;45905;50.570;10.428;2022-09-09T17:11:55;19.10;82.30
60033;DHT22;45905;50.570;10.428;2022-09-09T17:14:23;19.00;82.70
60033;DHT22;45905;50.570;10.428;2022-09-09T17:16:50;19.00;82.90
60033;DHT22;45905;50.570;10.428;2022-09-09T17:19:18;19.00;83.00
60033;DHT22;45905;50.570;10.428;2022-09-09T17:21:45;19.00;83.30
60033;DHT22;45905;50.570;10.428;2022-09-09T17:24:34;19.00;83.50
60033;DHT22;45905;50.570;10.428;2022-09-09T17:27:05;18.90;83.20
60033;DHT22;45905;50.570;10.428;2022-09-09T17:29:32;18.90;83.20
60033;DHT22;45905;50.570;10.428;2022-09-09T17:32:03;18.80;83.00
60033;DHT22;45905;50.570;10.428;2022-09-09T17:34:32;18.80;83.20
60033;DHT22;45905;50.570;10.428;2022-09-09T17:37:00;18.70;83.20
60033;DHT22;45905;50.570;10.428;2022-09-09T17:39:27;18.60;83.30
60033;DHT22;45905;50.570;10.428;2022-09-09T17:41:55;18.60;83.40
60033;DHT22;45905;50.570;10.428;2022-09-09T17:44:22;18.90;83.60
60033;DHT22;45905;50.570;10.428;2022-09-09T17:46:50;18.40;83.20
60033;DHT22;45905;50.570;10.428;2022-09-09T17:49:17;18.30;83.30
60033;DHT22;45905;50.570;10.428;2022-09-09T17:51:45;18.20;83.50